sensor_id;sensor_type;location;lat;lon;timestamp;temperature;humidity
14485;DHT22;7328;50.812;4.422;2022-10-13T00:00:51;13.00;99.90
14485;DHT22;7328;50.812;4.422;2022-10-13T00:03:18;12.90;99.90
14485;DHT22;7328;50.812;4.422;2022-10-13T00:05:48;12.90;99.90
14485;DHT22;7328;50.812;4.422;2022-10-13T00:08:17;12.90;99.90
14485;DHT22;7328;50.812;4.422;2022-10-13T00:10:44;12.90;99.90
14485;DHT22;7328;50.812;4.422;2022-10-13T00:13:11;12.90;99.90
14485;DHT22;7328;50.812;4.422;2022-10-13T00:15:42;12.90;99.90
14485;DHT22;7328;50.812;4.422;2022-10-13T00:18:08;12.90;99.90
14485;DHT22;7328;50.812;4.422;2022-10-13T00:20:34;12.90;99.90
14485;DHT22;7328;50.812;4.422;2022-10-13T00:23:00;13.00;99.90
14485;DHT22;7328;50.812;4.422;2022-10-13T00:25:26;12.90;99.90
14485;DHT22;7328;50.812;4.422;2022-10-13T00:27:51;12.90;99.90
14485;DHT22;7328;50.812;4.422;2022-10-13T00:30:17;12.90;99.90
14485;DHT22;7328;50.812;4.422;2022-10-13T00:32:43;12.90;99.90
14485;DHT22;7328;50.812;4.422;2022-10-13T00:35:09;13.00;99.90
14485;DHT22;7328;50.812;4.422;2022-10-13T00:37:35;12.90;99.90
14485;DHT22;7328;50.812;4.422;2022-10-13T00:40:01;12.90;99.90
14485;DHT22;7328;50.812;4.422;2022-10-13T00:42:26;13.00;99.90
14485;DHT22;7328;50.812;4.422;2022-10-13T00:45:03;13.00;99.90
14485;DHT22;7328;50.812;4.422;2022-10-13T00:47:36;12.90;99.90
14485;DHT22;7328;50.812;4.422;2022-10-13T00:50:04;12.90;99.90
14485;DHT22;7328;50.812;4.422;2022-10-13T00:52:33;12.80;99.90
14485;DHT22;7328;50.812;4.422;2022-10-13T00:55:00;12.80;99.90
14485;DHT22;7328;50.812;4.422;2022-10-13T00:57:27;12.80;99.90
14485;DHT22;7328;50.812;4.422;2022-10-13T00:59:52;12.70;99.90
14485;DHT22;7328;50.812;4.422;2022-10-13T01:02:18;12.70;99.90
14485;DHT22;7328;50.812;4.422;2022-10-13T01:04:46;12.70;99.90
14485;DHT22;7328;50.812;4.422;2022-10-13T01:07:14;12.80;99.90
14485;DHT22;7328;50.812;4.422;2022-10-13T01:09:42;12.80;99.90
14485;DHT22;7328;50.812;4.422;2022-10-13T01:12:11;12.80;99.90
14485;DHT22;7328;50.812;4.422;2022-10-13T01:26:23;12.80;99.90
14485;DHT22;7328;50.812;4.422;2022-10-13T01:38:25;12.60;99.90
14485;DHT22;7328;50.812;4.422;2022-10-13T01:40:44;12.60;99.90
14485;DHT22;7328;50.812;4.422;2022-10-13T01:43:27;12.50;99.90
14485;DHT22;7328;50.812;4.422;2022-10-13T01:48:28;12.50;99.90
14485;DHT22;7328;50.812;4.422;2022-10-13T01:50:57;12.50;99.90
14485;DHT22;7328;50.812;4.422;2022-10-13T01:53:24;12.50;99.90
14485;DHT22;7328;50.812;4.422;2022-10-13T01:55:53;12.40;99.90
14485;DHT22;7328;50.812;4.422;2022-10-13T01:58:21;12.50;99.90
14485;DHT22;7328;50.812;4.422;2022-10-13T02:04:18;12.50;99.90
14485;DHT22;7328;50.812;4.422;2022-10-13T02:06:52;12.40;99.90
14485;DHT22;7328;50.812;4.422;2022-10-13T02:12:02;12.10;99.90
14485;DHT22;7328;50.812;4.422;2022-10-13T02:14:32;12.00;99.90
14485;DHT22;7328;50.812;4.422;2022-10-13T02:17:02;11.90;99.90
14485;DHT22;7328;50.812;4.422;2022-10-13T02:19:32;11.80;99.90
14485;DHT22;7328;50.812;4.422;2022-10-13T02:21:59;11.70;99.90
14485;DHT22;7328;50.812;4.422;2022-10-13T02:24:25;11.50;99.90
14485;DHT22;7328;50.812;4.422;2022-10-13T02:26:51;11.20;99.90
14485;DHT22;7328;50.812;4.422;2022-10-13T02:29:17;10.90;99.90
14485;DHT22;7328;50.812;4.422;2022-10-13T02:31:44;10.30;99.90
14485;DHT22;7328;50.812;4.422;2022-10-13T02:34:11;8.50;99.90
14485;DHT22;7328;50.812;4.422;2022-10-13T02:36:37;11.90;99.90
14485;DHT22;7328;50.812;4.422;2022-10-13T02:39:04;11.80;99.90
14485;DHT22;7328;50.812;4.422;2022-10-13T02:41:30;11.90;99.90
14485;DHT22;7328;50.812;4.422;2022-10-13T02:43:56;11.90;99.90
14485;DHT22;7328;50.812;4.422;2022-10-13T02:46:22;11.80;99.90
14485;DHT22;7328;50.812;4.422;2022-10-13T02:48:47;11.80;99.90
14485;DHT22;7328;50.812;4.422;2022-10-13T02:51:13;11.80;99.90
14485;DHT22;7328;50.812;4.422;2022-10-13T02:53:39;11.70;99.90
14485;DHT22;7328;50.812;4.422;2022-10-13T02:56:05;11.70;99.90
14485;DHT22;7328;50.812;4.422;2022-10-13T02:58:31;11.70;99.90
14485;DHT22;7328;50.812;4.422;2022-10-13T03:01:11;11.60;99.90
14485;DHT22;7328;50.812;4.422;2022-10-13T03:03:38;11.60;99.90
14485;DHT22;7328;50.812;4.422;2022-10-13T03:06:04;11.70;99.90
14485;DHT22;7328;50.812;4.422;2022-10-13T03:08:32;11.60;99.90
14485;DHT22;7328;50.812;4.422;2022-10-13T03:10:58;11.60;99.90
14485;DHT22;7328;50.812;4.422;2022-10-13T03:13:24;11.60;99.90
14485;DHT22;7328;50.812;4.422;2022-10-13T03:15:49;11.60;99.90
14485;DHT22;7328;50.812;4.422;2022-10-13T03:18:15;11.60;99.90
14485;DHT22;7328;50.812;4.422;2022-10-13T03:20:41;11.60;99.90
14485;DHT22;7328;50.812;4.422;2022-10-13T03:23:07;11.60;99.90
14485;DHT22;7328;50.812;4.422;2022-10-13T03:25:34;11.60;99.90
14485;DHT22;7328;50.812;4.422;2022-10-13T03:28:00;11.60;99.90
14485;DHT22;7328;50.812;4.422;2022-10-13T03:30:25;11.70;99.90
14485;DHT22;7328;50.812;4.422;2022-10-13T03:32:51;11.60;99.90
14485;DHT22;7328;50.812;4.422;2022-10-13T03:35:17;11.60;99.90
14485;DHT22;7328;50.812;4.422;2022-10-13T03:37:43;11.60;99.90
14485;DHT22;7328;50.812;4.422;2022-10-13T03:40:10;11.60;99.90
14485;DHT22;7328;50.812;4.422;2022-10-13T03:42:36;11.70;99.90
14485;DHT22;7328;50.812;4.422;2022-10-13T03:45:03;11.70;99.90
14485;DHT22;7328;50.812;4.422;2022-10-13T03:47:29;11.80;99.90
14485;DHT22;7328;50.812;4.422;2022-10-13T03:49:55;11.90;99.90
14485;DHT22;7328;50.812;4.422;2022-10-13T03:52:22;11.90;99.90
14485;DHT22;7328;50.812;4.422;2022-10-13T03:54:49;11.90;99.90
14485;DHT22;7328;50.812;4.422;2022-10-13T03:57:15;11.90;99.90
14485;DHT22;7328;50.812;4.422;2022-10-13T03:59:41;11.90;99.90
14485;DHT22;7328;50.812;4.422;2022-10-13T04:02:07;12.00;99.90
14485;DHT22;7328;50.812;4.422;2022-10-13T04:04:33;12.00;99.90
14485;DHT22;7328;50.812;4.422;2022-10-13T04:07:00;12.00;99.90
14485;DHT22;7328;50.812;4.422;2022-10-13T04:09:26;12.10;99.90
14485;DHT22;7328;50.812;4.422;2022-10-13T04:11:52;12.20;99.90
14485;DHT22;7328;50.812;4.422;2022-10-13T04:14:18;12.30;99.90
14485;DHT22;7328;50.812;4.422;2022-10-13T04:16:44;12.30;99.90
14485;DHT22;7328;50.812;4.422;2022-10-13T04:19:11;12.30;99.90
14485;DHT22;7328;50.812;4.422;2022-10-13T04:21:37;12.30;99.90
14485;DHT22;7328;50.812;4.422;2022-10-13T04:24:04;12.20;99.90
14485;DHT22;7328;50.812;4.422;2022-10-13T04:26:32;12.20;99.90
14485;DHT22;7328;50.812;4.422;2022-10-13T04:28:59;12.20;99.90
14485;DHT22;7328;50.812;4.422;2022-10-13T04:31:27;12.20;99.90
14485;DHT22;7328;50.812;4.422;2022-10-13T04:33:53;12.10;99.90
14485;DHT22;7328;50.812;4.422;2022-10-13T04:36:19;12.10;99.90
14485;DHT22;7328;50.812;4.422;2022-10-13T04:38:45;12.00;99.90
14485;DHT22;7328;50.812;4.422;2022-10-13T04:41:13;12.10;99.90
14485;DHT22;7328;50.812;4.422;2022-10-13T04:43:39;12.10;99.90
14485;DHT22;7328;50.812;4.422;2022-10-13T04:46:07;12.10;99.90
14485;DHT22;7328;50.812;4.422;2022-10-13T04:48:33;12.10;99.90
14485;DHT22;7328;50.812;4.422;2022-10-13T04:51:04;12.20;99.90
14485;DHT22;7328;50.812;4.422;2022-10-13T04:53:30;12.00;99.90
14485;DHT22;7328;50.812;4.422;2022-10-13T04:56:00;12.00;99.90
14485;DHT22;7328;50.812;4.422;2022-10-13T04:58:27;11.90;99.90
14485;DHT22;7328;50.812;4.422;2022-10-13T05:00:52;11.90;99.90
14485;DHT22;7328;50.812;4.422;2022-10-13T05:03:18;11.90;99.90
14485;DHT22;7328;50.812;4.422;2022-10-13T05:05:44;11.90;99.90
14485;DHT22;7328;50.812;4.422;2022-10-13T05:08:10;11.90;99.90
14485;DHT22;7328;50.812;4.422;2022-10-13T05:10:36;11.90;99.90
14485;DHT22;7328;50.812;4.422;2022-10-13T05:13:02;11.90;99.90
14485;DHT22;7328;50.812;4.422;2022-10-13T05:15:27;11.90;99.90
14485;DHT22;7328;50.812;4.422;2022-10-13T05:17:53;11.90;99.90
14485;DHT22;7328;50.812;4.422;2022-10-13T05:20:19;11.90;99.90
14485;DHT22;7328;50.812;4.422;2022-10-13T05:22:44;11.90;99.90
14485;DHT22;7328;50.812;4.422;2022-10-13T05:25:10;11.90;99.90
14485;DHT22;7328;50.812;4.422;2022-10-13T05:27:36;11.90;99.90
14485;DHT22;7328;50.812;4.422;2022-10-13T05:30:02;12.00;99.90
14485;DHT22;7328;50.812;4.422;2022-10-13T05:32:27;11.90;99.90
14485;DHT22;7328;50.812;4.422;2022-10-13T05:34:53;11.90;99.90
14485;DHT22;7328;50.812;4.422;2022-10-13T05:37:19;11.80;99.90
14485;DHT22;7328;50.812;4.422;2022-10-13T05:39:47;11.80;99.90
14485;DHT22;7328;50.812;4.422;2022-10-13T05:42:13;11.80;99.90
14485;DHT22;7328;50.812;4.422;2022-10-13T05:44:39;11.80;99.90
14485;DHT22;7328;50.812;4.422;2022-10-13T05:47:04;11.80;99.90
14485;DHT22;7328;50.812;4.422;2022-10-13T05:49:30;11.80;99.90
14485;DHT22;7328;50.812;4.422;2022-10-13T05:51:59;11.80;99.90
14485;DHT22;7328;50.812;4.422;2022-10-13T05:54:29;11.80;99.90
14485;DHT22;7328;50.812;4.422;2022-10-13T05:57:25;11.80;99.90
14485;DHT22;7328;50.812;4.422;2022-10-13T06:00:06;11.80;99.90
14485;DHT22;7328;50.812;4.422;2022-10-13T06:02:37;11.80;99.90
14485;DHT22;7328;50.812;4.422;2022-10-13T06:05:05;11.80;99.90
14485;DHT22;7328;50.812;4.422;2022-10-13T06:07:33;11.80;99.90
14485;DHT22;7328;50.812;4.422;2022-10-13T06:10:00;11.70;99.90
14485;DHT22;7328;50.812;4.422;2022-10-13T06:12:26;11.80;99.90
14485;DHT22;7328;50.812;4.422;2022-10-13T06:14:52;11.80;99.90
14485;DHT22;7328;50.812;4.422;2022-10-13T06:17:17;11.80;99.90
14485;DHT22;7328;50.812;4.422;2022-10-13T06:19:43;11.90;99.90
14485;DHT22;7328;50.812;4.422;2022-10-13T06:22:09;11.90;99.90
14485;DHT22;7328;50.812;4.422;2022-10-13T06:24:35;11.90;99.90
14485;DHT22;7328;50.812;4.422;2022-10-13T06:27:01;11.90;99.90
14485;DHT22;7328;50.812;4.422;2022-10-13T06:29:27;11.90;99.90
14485;DHT22;7328;50.812;4.422;2022-10-13T06:31:53;11.90;99.90
14485;DHT22;7328;50.812;4.422;2022-10-13T06:34:18;12.00;99.90
14485;DHT22;7328;50.812;4.422;2022-10-13T06:36:44;12.00;99.90
14485;DHT22;7328;50.812;4.422;2022-10-13T06:39:10;12.10;99.90
14485;DHT22;7328;50.812;4.422;2022-10-13T06:41:36;12.10;99.90
14485;DHT22;7328;50.812;4.422;2022-10-13T06:44:01;12.10;99.90
14485;DHT22;7328;50.812;4.422;2022-10-13T06:46:27;12.20;99.90
14485;DHT22;7328;50.812;4.422;2022-10-13T06:48:53;12.30;99.90
14485;DHT22;7328;50.812;4.422;2022-10-13T06:51:18;12.40;99.90
14485;DHT22;7328;50.812;4.422;2022-10-13T06:53:44;12.40;99.90
14485;DHT22;7328;50.812;4.422;2022-10-13T06:56:11;12.40;99.90
14485;DHT22;7328;50.812;4.422;2022-10-13T06:58:37;12.50;99.90
14485;DHT22;7328;50.812;4.422;2022-10-13T07:01:04;12.50;99.90
14485;DHT22;7328;50.812;4.422;2022-10-13T07:03:30;12.50;99.90
14485;DHT22;7328;50.812;4.422;2022-10-13T07:06:03;12.60;99.90
14485;DHT22;7328;50.812;4.422;2022-10-13T07:08:30;12.60;99.90
14485;DHT22;7328;50.812;4.422;2022-10-13T07:10:56;12.60;99.90
14485;DHT22;7328;50.812;4.422;2022-10-13T07:13:22;12.60;99.90
14485;DHT22;7328;50.812;4.422;2022-10-13T07:15:47;12.70;99.90
14485;DHT22;7328;50.812;4.422;2022-10-13T07:18:13;12.80;99.90
14485;DHT22;7328;50.812;4.422;2022-10-13T07:20:39;12.80;99.90
14485;DHT22;7328;50.812;4.422;2022-10-13T07:23:05;12.90;99.90
14485;DHT22;7328;50.812;4.422;2022-10-13T07:25:31;12.90;99.90
14485;DHT22;7328;50.812;4.422;2022-10-13T07:27:59;13.00;99.90
14485;DHT22;7328;50.812;4.422;2022-10-13T07:30:26;13.00;99.90
14485;DHT22;7328;50.812;4.422;2022-10-13T07:32:52;13.00;99.90
14485;DHT22;7328;50.812;4.422;2022-10-13T07:35:18;13.00;99.90
14485;DHT22;7328;50.812;4.422;2022-10-13T07:37:44;13.00;99.90
14485;DHT22;7328;50.812;4.422;2022-10-13T07:40:10;13.00;99.90
14485;DHT22;7328;50.812;4.422;2022-10-13T07:42:36;13.00;99.90
14485;DHT22;7328;50.812;4.422;2022-10-13T07:45:02;13.00;99.90
14485;DHT22;7328;50.812;4.422;2022-10-13T07:47:28;13.00;99.90
14485;DHT22;7328;50.812;4.422;2022-10-13T07:49:54;13.00;99.90
14485;DHT22;7328;50.812;4.422;2022-10-13T07:52:20;13.00;99.90
14485;DHT22;7328;50.812;4.422;2022-10-13T07:54:46;12.90;99.90
14485;DHT22;7328;50.812;4.422;2022-10-13T07:57:12;13.00;99.90
14485;DHT22;7328;50.812;4.422;2022-10-13T07:59:38;13.00;99.90
14485;DHT22;7328;50.812;4.422;2022-10-13T08:02:03;12.90;99.90
14485;DHT22;7328;50.812;4.422;2022-10-13T08:04:33;13.00;99.90
14485;DHT22;7328;50.812;4.422;2022-10-13T08:06:59;12.90;99.90
14485;DHT22;7328;50.812;4.422;2022-10-13T08:09:25;13.00;99.90
14485;DHT22;7328;50.812;4.422;2022-10-13T08:11:51;13.00;99.90
14485;DHT22;7328;50.812;4.422;2022-10-13T08:14:18;13.00;99.90
14485;DHT22;7328;50.812;4.422;2022-10-13T08:16:44;13.00;99.90
14485;DHT22;7328;50.812;4.422;2022-10-13T08:19:12;13.10;99.90
14485;DHT22;7328;50.812;4.422;2022-10-13T08:21:39;13.10;99.90
14485;DHT22;7328;50.812;4.422;2022-10-13T08:24:06;13.10;99.90
14485;DHT22;7328;50.812;4.422;2022-10-13T08:26:33;13.20;99.90
14485;DHT22;7328;50.812;4.422;2022-10-13T08:28:59;13.30;99.90
14485;DHT22;7328;50.812;4.422;2022-10-13T08:31:25;13.30;99.90
14485;DHT22;7328;50.812;4.422;2022-10-13T08:33:50;13.40;99.90
14485;DHT22;7328;50.812;4.422;2022-10-13T08:36:17;13.50;99.90
14485;DHT22;7328;50.812;4.422;2022-10-13T08:38:44;13.60;99.90
14485;DHT22;7328;50.812;4.422;2022-10-13T08:41:40;13.60;99.90
14485;DHT22;7328;50.812;4.422;2022-10-13T08:44:32;13.70;99.90
14485;DHT22;7328;50.812;4.422;2022-10-13T08:47:12;13.70;99.90
14485;DHT22;7328;50.812;4.422;2022-10-13T08:49:41;13.70;99.90
14485;DHT22;7328;50.812;4.422;2022-10-13T08:52:18;13.70;99.90
14485;DHT22;7328;50.812;4.422;2022-10-13T08:54:45;13.20;99.90
14485;DHT22;7328;50.812;4.422;2022-10-13T08:57:11;12.60;99.90
14485;DHT22;7328;50.812;4.422;2022-10-13T08:59:37;12.30;99.90
14485;DHT22;7328;50.812;4.422;2022-10-13T09:02:11;11.80;99.90
14485;DHT22;7328;50.812;4.422;2022-10-13T09:04:40;14.00;99.90
14485;DHT22;7328;50.812;4.422;2022-10-13T09:07:39;14.10;99.90
14485;DHT22;7328;50.812;4.422;2022-10-13T09:10:05;14.20;99.90
14485;DHT22;7328;50.812;4.422;2022-10-13T09:12:32;14.20;99.90
14485;DHT22;7328;50.812;4.422;2022-10-13T09:15:07;14.20;99.90
14485;DHT22;7328;50.812;4.422;2022-10-13T09:17:36;14.20;99.90
14485;DHT22;7328;50.812;4.422;2022-10-13T09:20:19;14.30;99.90
14485;DHT22;7328;50.812;4.422;2022-10-13T09:23:06;14.30;99.90
14485;DHT22;7328;50.812;4.422;2022-10-13T09:25:54;14.20;99.90
14485;DHT22;7328;50.812;4.422;2022-10-13T09:28:26;14.20;99.90
14485;DHT22;7328;50.812;4.422;2022-10-13T09:33:40;14.30;99.90
14485;DHT22;7328;50.812;4.422;2022-10-13T09:36:11;14.30;99.90
14485;DHT22;7328;50.812;4.422;2022-10-13T09:38:39;14.30;99.90
14485;DHT22;7328;50.812;4.422;2022-10-13T09:46:23;-15.10;99.90
14485;DHT22;7328;50.812;4.422;2022-10-13T09:48:56;15.00;99.90
14485;DHT22;7328;50.812;4.422;2022-10-13T09:53:57;15.10;99.90
14485;DHT22;7328;50.812;4.422;2022-10-13T09:56:31;15.10;99.90
14485;DHT22;7328;50.812;4.422;2022-10-13T10:01:38;15.00;99.90
14485;DHT22;7328;50.812;4.422;2022-10-13T10:04:10;15.00;99.90
14485;DHT22;7328;50.812;4.422;2022-10-13T10:06:38;15.10;99.90
14485;DHT22;7328;50.812;4.422;2022-10-13T10:09:31;15.10;99.90
14485;DHT22;7328;50.812;4.422;2022-10-13T10:11:59;15.20;99.90
14485;DHT22;7328;50.812;4.422;2022-10-13T10:14:29;15.20;99.90
14485;DHT22;7328;50.812;4.422;2022-10-13T10:19:29;15.30;99.90
14485;DHT22;7328;50.812;4.422;2022-10-13T10:22:08;15.20;99.90
14485;DHT22;7328;50.812;4.422;2022-10-13T10:27:38;15.10;99.90
14485;DHT22;7328;50.812;4.422;2022-10-13T10:30:13;15.00;99.90
14485;DHT22;7328;50.812;4.422;2022-10-13T10:33:07;15.00;99.90
14485;DHT22;7328;50.812;4.422;2022-10-13T10:38:30;15.00;99.90
14485;DHT22;7328;50.812;4.422;2022-10-13T10:46:22;14.50;99.90
14485;DHT22;7328;50.812;4.422;2022-10-13T10:48:51;14.40;99.90
14485;DHT22;7328;50.812;4.422;2022-10-13T10:51:18;14.30;99.90
14485;DHT22;7328;50.812;4.422;2022-10-13T10:56:20;14.00;99.90
14485;DHT22;7328;50.812;4.422;2022-10-13T10:58:59;13.90;99.90
14485;DHT22;7328;50.812;4.422;2022-10-13T11:06:36;13.70;99.90
14485;DHT22;7328;50.812;4.422;2022-10-13T11:09:04;13.70;99.90
14485;DHT22;7328;50.812;4.422;2022-10-13T11:11:35;13.70;99.90
14485;DHT22;7328;50.812;4.422;2022-10-13T11:17:07;13.50;99.90
14485;DHT22;7328;50.812;4.422;2022-10-13T11:19:36;13.40;99.90
14485;DHT22;7328;50.812;4.422;2022-10-13T11:53:55;14.00;99.90
14485;DHT22;7328;50.812;4.422;2022-10-13T11:56:43;14.20;99.90
14485;DHT22;7328;50.812;4.422;2022-10-13T12:01:46;14.20;99.90
14485;DHT22;7328;50.812;4.422;2022-10-13T12:04:13;14.20;99.90
14485;DHT22;7328;50.812;4.422;2022-10-13T12:06:40;14.20;99.90
14485;DHT22;7328;50.812;4.422;2022-10-13T12:09:17;14.20;99.90
14485;DHT22;7328;50.812;4.422;2022-10-13T12:11:43;14.20;99.90
14485;DHT22;7328;50.812;4.422;2022-10-13T12:14:20;14.10;99.90
14485;DHT22;7328;50.812;4.422;2022-10-13T12:16:57;14.20;99.90
14485;DHT22;7328;50.812;4.422;2022-10-13T12:19:26;14.20;99.90
14485;DHT22;7328;50.812;4.422;2022-10-13T12:21:55;14.30;99.90
14485;DHT22;7328;50.812;4.422;2022-10-13T12:24:25;14.20;99.90
14485;DHT22;7328;50.812;4.422;2022-10-13T12:26:51;14.10;99.90
14485;DHT22;7328;50.812;4.422;2022-10-13T12:29:18;13.90;99.90
14485;DHT22;7328;50.812;4.422;2022-10-13T12:31:49;13.90;99.90
14485;DHT22;7328;50.812;4.422;2022-10-13T12:34:30;13.40;99.90
14485;DHT22;7328;50.812;4.422;2022-10-13T12:37:13;13.50;99.90
14485;DHT22;7328;50.812;4.422;2022-10-13T12:39:39;13.40;99.90
14485;DHT22;7328;50.812;4.422;2022-10-13T12:42:06;11.50;99.90
14485;DHT22;7328;50.812;4.422;2022-10-13T12:44:32;15.20;99.90
14485;DHT22;7328;50.812;4.422;2022-10-13T12:47:00;15.30;99.90
14485;DHT22;7328;50.812;4.422;2022-10-13T12:49:32;15.30;99.90
14485;DHT22;7328;50.812;4.422;2022-10-13T12:52:05;15.30;99.90
14485;DHT22;7328;50.812;4.422;2022-10-13T12:54:45;15.40;99.90
14485;DHT22;7328;50.812;4.422;2022-10-13T12:57:35;15.40;99.90
14485;DHT22;7328;50.812;4.422;2022-10-13T13:05:34;15.10;99.90
14485;DHT22;7328;50.812;4.422;2022-10-13T13:08:01;15.00;99.90
14485;DHT22;7328;50.812;4.422;2022-10-13T13:10:28;15.00;99.90
14485;DHT22;7328;50.812;4.422;2022-10-13T13:12:54;14.90;99.90
14485;DHT22;7328;50.812;4.422;2022-10-13T13:17:52;14.70;99.90
14485;DHT22;7328;50.812;4.422;2022-10-13T13:20:29;14.70;99.90
14485;DHT22;7328;50.812;4.422;2022-10-13T13:22:56;14.70;99.90
14485;DHT22;7328;50.812;4.422;2022-10-13T13:25:22;14.50;99.90
14485;DHT22;7328;50.812;4.422;2022-10-13T13:27:48;14.30;99.90
14485;DHT22;7328;50.812;4.422;2022-10-13T13:30:16;14.20;99.90
14485;DHT22;7328;50.812;4.422;2022-10-13T13:32:43;13.90;99.90
14485;DHT22;7328;50.812;4.422;2022-10-13T13:35:09;8.60;99.90
14485;DHT22;7328;50.812;4.422;2022-10-13T13:37:44;14.20;99.90
14485;DHT22;7328;50.812;4.422;2022-10-13T13:40:22;14.20;99.90
14485;DHT22;7328;50.812;4.422;2022-10-13T13:42:49;14.30;99.90
14485;DHT22;7328;50.812;4.422;2022-10-13T13:45:16;14.10;99.90
14485;DHT22;7328;50.812;4.422;2022-10-13T13:47:43;14.10;99.90
14485;DHT22;7328;50.812;4.422;2022-10-13T13:50:21;14.10;99.90
14485;DHT22;7328;50.812;4.422;2022-10-13T13:52:47;14.10;99.90
14485;DHT22;7328;50.812;4.422;2022-10-13T13:55:13;14.00;99.90
14485;DHT22;7328;50.812;4.422;2022-10-13T13:57:40;14.00;99.90
14485;DHT22;7328;50.812;4.422;2022-10-13T14:00:06;14.00;99.90
14485;DHT22;7328;50.812;4.422;2022-10-13T14:02:32;13.80;99.90
14485;DHT22;7328;50.812;4.422;2022-10-13T14:04:58;13.70;99.90
14485;DHT22;7328;50.812;4.422;2022-10-13T14:07:24;13.70;99.90
14485;DHT22;7328;50.812;4.422;2022-10-13T14:09:50;13.80;99.90
14485;DHT22;7328;50.812;4.422;2022-10-13T14:12:15;13.80;99.90
14485;DHT22;7328;50.812;4.422;2022-10-13T14:14:41;13.70;99.90
14485;DHT22;7328;50.812;4.422;2022-10-13T14:17:07;13.70;99.90
14485;DHT22;7328;50.812;4.422;2022-10-13T14:19:33;13.80;99.90
14485;DHT22;7328;50.812;4.422;2022-10-13T14:21:59;13.80;99.90
14485;DHT22;7328;50.812;4.422;2022-10-13T14:24:26;13.80;99.90
14485;DHT22;7328;50.812;4.422;2022-10-13T14:26:52;14.00;99.90
14485;DHT22;7328;50.812;4.422;2022-10-13T14:29:18;14.10;99.90
14485;DHT22;7328;50.812;4.422;2022-10-13T14:31:44;14.20;99.90
14485;DHT22;7328;50.812;4.422;2022-10-13T14:34:10;14.20;99.90
14485;DHT22;7328;50.812;4.422;2022-10-13T14:36:36;14.30;99.90
14485;DHT22;7328;50.812;4.422;2022-10-13T14:39:02;14.30;99.90
14485;DHT22;7328;50.812;4.422;2022-10-13T14:41:27;14.30;99.90
14485;DHT22;7328;50.812;4.422;2022-10-13T14:43:54;14.20;99.90
14485;DHT22;7328;50.812;4.422;2022-10-13T14:46:21;14.20;99.90
14485;DHT22;7328;50.812;4.422;2022-10-13T14:48:48;14.00;99.90
14485;DHT22;7328;50.812;4.422;2022-10-13T14:51:14;13.90;99.90
14485;DHT22;7328;50.812;4.422;2022-10-13T14:53:42;14.00;99.90
14485;DHT22;7328;50.812;4.422;2022-10-13T14:58:48;14.10;99.90
14485;DHT22;7328;50.812;4.422;2022-10-13T15:01:15;14.10;99.90
14485;DHT22;7328;50.812;4.422;2022-10-13T15:03:41;14.20;99.90
14485;DHT22;7328;50.812;4.422;2022-10-13T15:06:17;14.10;99.90
14485;DHT22;7328;50.812;4.422;2022-10-13T15:08:43;14.10;99.90
14485;DHT22;7328;50.812;4.422;2022-10-13T15:11:10;13.80;99.90
14485;DHT22;7328;50.812;4.422;2022-10-13T15:13:37;13.80;99.90
14485;DHT22;7328;50.812;4.422;2022-10-13T15:16:04;14.00;99.90
14485;DHT22;7328;50.812;4.422;2022-10-13T15:18:30;13.70;99.90
14485;DHT22;7328;50.812;4.422;2022-10-13T15:20:57;13.80;99.90
14485;DHT22;7328;50.812;4.422;2022-10-13T15:23:23;14.00;99.90
14485;DHT22;7328;50.812;4.422;2022-10-13T15:25:50;14.00;99.90
14485;DHT22;7328;50.812;4.422;2022-10-13T15:28:16;14.10;99.90
14485;DHT22;7328;50.812;4.422;2022-10-13T15:30:42;14.10;99.90
14485;DHT22;7328;50.812;4.422;2022-10-13T15:33:07;14.20;99.90
14485;DHT22;7328;50.812;4.422;2022-10-13T15:35:33;14.10;99.90
14485;DHT22;7328;50.812;4.422;2022-10-13T15:37:59;14.00;99.90
14485;DHT22;7328;50.812;4.422;2022-10-13T15:40:25;14.00;99.90
14485;DHT22;7328;50.812;4.422;2022-10-13T15:42:52;13.80;99.90
14485;DHT22;7328;50.812;4.422;2022-10-13T15:45:18;13.40;99.90
14485;DHT22;7328;50.812;4.422;2022-10-13T15:47:43;12.60;99.90
14485;DHT22;7328;50.812;4.422;2022-10-13T15:50:09;-13.00;99.90
14485;DHT22;7328;50.812;4.422;2022-10-13T15:52:39;-11.20;99.90
14485;DHT22;7328;50.812;4.422;2022-10-13T15:55:06;-11.70;99.90
14485;DHT22;7328;50.812;4.422;2022-10-13T15:57:32;-10.40;99.90
14485;DHT22;7328;50.812;4.422;2022-10-13T15:59:58;-11.20;99.90
14485;DHT22;7328;50.812;4.422;2022-10-13T16:02:23;-10.70;99.90
14485;DHT22;7328;50.812;4.422;2022-10-13T16:04:50;-13.40;99.90
14485;DHT22;7328;50.812;4.422;2022-10-13T16:07:15;-14.70;99.90
14485;DHT22;7328;50.812;4.422;2022-10-13T16:09:43;-13.00;99.90
14485;DHT22;7328;50.812;4.422;2022-10-13T16:12:09;-12.10;99.90
14485;DHT22;7328;50.812;4.422;2022-10-13T16:14:35;-12.70;99.90
14485;DHT22;7328;50.812;4.422;2022-10-13T16:17:01;-14.00;99.90
14485;DHT22;7328;50.812;4.422;2022-10-13T16:19:28;-13.30;99.90
14485;DHT22;7328;50.812;4.422;2022-10-13T16:21:54;-13.50;99.90
14485;DHT22;7328;50.812;4.422;2022-10-13T16:24:19;-16.70;99.90
14485;DHT22;7328;50.812;4.422;2022-10-13T16:26:45;-12.50;99.90
14485;DHT22;7328;50.812;4.422;2022-10-13T16:29:11;-11.00;99.90
14485;DHT22;7328;50.812;4.422;2022-10-13T16:31:36;-10.90;99.90
14485;DHT22;7328;50.812;4.422;2022-10-13T16:34:02;-12.40;99.90
14485;DHT22;7328;50.812;4.422;2022-10-13T16:36:28;-12.00;99.90
14485;DHT22;7328;50.812;4.422;2022-10-13T16:38:55;-14.50;99.90
14485;DHT22;7328;50.812;4.422;2022-10-13T16:41:20;-11.50;99.90
14485;DHT22;7328;50.812;4.422;2022-10-13T16:43:46;-12.30;99.90
14485;DHT22;7328;50.812;4.422;2022-10-13T16:46:15;-12.50;99.90
14485;DHT22;7328;50.812;4.422;2022-10-13T16:48:42;-10.40;99.90
14485;DHT22;7328;50.812;4.422;2022-10-13T16:51:15;-12.40;99.90
14485;DHT22;7328;50.812;4.422;2022-10-13T16:53:41;-12.50;99.90
14485;DHT22;7328;50.812;4.422;2022-10-13T16:56:08;-12.90;99.90
14485;DHT22;7328;50.812;4.422;2022-10-13T16:58:34;-11.20;99.90
14485;DHT22;7328;50.812;4.422;2022-10-13T17:01:08;-11.90;99.90
14485;DHT22;7328;50.812;4.422;2022-10-13T17:03:37;-11.10;99.90
14485;DHT22;7328;50.812;4.422;2022-10-13T17:06:03;13.70;99.90
14485;DHT22;7328;50.812;4.422;2022-10-13T17:08:30;13.80;99.90
14485;DHT22;7328;50.812;4.422;2022-10-13T17:10:58;13.80;99.90
14485;DHT22;7328;50.812;4.422;2022-10-13T17:13:24;13.80;99.90
14485;DHT22;7328;50.812;4.422;2022-10-13T17:15:52;13.80;99.90
14485;DHT22;7328;50.812;4.422;2022-10-13T17:18:19;13.90;99.90
14485;DHT22;7328;50.812;4.422;2022-10-13T17:23:16;13.90;99.90
14485;DHT22;7328;50.812;4.422;2022-10-13T17:25:42;13.90;99.90
14485;DHT22;7328;50.812;4.422;2022-10-13T17:28:08;13.80;99.90
14485;DHT22;7328;50.812;4.422;2022-10-13T17:30:33;13.90;99.90
14485;DHT22;7328;50.812;4.422;2022-10-13T17:33:00;13.80;99.90
14485;DHT22;7328;50.812;4.422;2022-10-13T17:35:26;13.90;99.90
14485;DHT22;7328;50.812;4.422;2022-10-13T17:37:51;13.80;99.90
14485;DHT22;7328;50.812;4.422;2022-10-13T17:40:19;13.80;99.90
14485;DHT22;7328;50.812;4.422;2022-10-13T17:42:45;13.80;99.90
14485;DHT22;7328;50.812;4.422;2022-10-13T17:45:11;13.90;99.90